KSLC/SLC METAR and TAF weather

Enter ICAO airport designator
Station Type Date Time Source
KSLC METAR 2019/05/21 20:54 UTC NOAA

KSLC 212054Z 30012KT 6SM RA BR FEW010 BKN020 OVC025 07/05 A2965 RMK AO2 SLP020 P0018 60042 T00720050 51010 VISNO NW RNWY


Station Type Date Time Source
KSLC Decoded METAR 2019/05/21 20:54 UTC NOAA

SALT LAKE CITY INTERNATIONAL AIRPORT , UT, United States (KSLC) 40-47N 111-58W 1286M
May 21, 2019 - 04:54 PM EDT / 2019.05.21 2054 UTC
Wind: from the WNW (300 degrees) at 14 MPH (12 KT):0
Visibility: 6 mile(s):0
Sky conditions: overcast
Weather: rain; mist
Precipitation last hour: 0.18 inches
Temperature: 45.0 F (7.2 C)
Dew Point: 41.0 F (5.0 C)
Relative Humidity: 85%
Pressure (altimeter): 29.65 in. Hg (1004 hPa)
Pressure tendency: 0.03 inches (1.0 hPa) higher than three hours ago
ob: KSLC 212054Z 30012KT 6SM RA BR FEW010 BKN020 OVC025 07/05 A2965 RMK AO2 SLP020 P0018 60042 T00720050 51010 VISNO NW RNWY
cycle: 21

Station Type Date Time Source
KSLC TAF 2019/05/21 21:03 UTC NOAA

TAF
AMD KSLC 212101Z 2121/2224 31012G18KT 6SM -RA BR BKN020 OVC030
FM212200 32010KT P6SM -RA BKN040 OVC060
FM220000 32008KT P6SM BKN070
FM220400 15005KT P6SM VCSH BKN060
FM221200 31005KT P6SM -RA BKN040

Example: see airport list